UUEE Airport Information

Runway Information
Runway 07L Length 11647 ft width 197 ft
Elevation 620 ft Threshold 0 ft Heading 75
Runway 25R Length 11647 ft Width 197 ft
Elevation 622 ft Threshold 0 ft Heading 255
Runway 07R Length 12139 ft width 197 ft
Elevation 617 ft Threshold 0 ft Heading 75
Runway 25L Length 12139 ft Width 197 ft
Elevation 620 ft Threshold 0 ft Heading 255
Airport Frequencies
Type APP Name APP 1 Frequency 119.3 MHZ
Type APP Name APP 2 Frequency 123.7 MHZ
Type ATIS Name ATIS Frequency 125.125 MHZ
Type GND Name GND Frequency 119 MHZ
Type PMSV Name VOLMET Frequency 127.875 MHZ
Type RDR Name RADAR Frequency 118.1 MHZ
Type TWR Name TWR Frequency 120.7 MHZ
Airport Navaids
Type NDB Name Sheremetyevo Frequency 338 KHZ
Type NDB Name Sheremetyevo Frequency 700 KHZ
Type NDB Name Sheremetyevo Frequency 770 KHZ
Type NDB Name Sheremetyevo Frequency 380 KHZ
Type NDB Name Sheremetyevo Frequency 338 KHZ
Type VOR-DME Name Sheremetyevo Frequency 114600 KHZ
Type NDB Name Sheremetyevo Frequency 700 KHZ
Type NDB Name Sheremetyevo Frequency 770 KHZ
Type NDB Name Sheremetyevo Frequency 380 KHZ
Airport Weather Information & NOTAM
ADDS - METARS form results

(0520 UTC 19 June 2019)
Data provider http://aviationweather.gov/metar/data/
 
METAR text: UUEE 190500Z 35002MPS CAVOK 22/12 Q1016 R24C/CLRD62 R24L/CLRD62 NOSIG
Conditions at: UUEE (MOSCOW/SHEREMET', RU) observed 0500 UTC 19 June 2019
Temperature: 22.0°C (72°F)
Dewpoint: 12.0°C (54°F) [RH = 53%]
Pressure (altimeter): 30.00 inches Hg (1016.0 mb)
Winds: from the N (350 degrees) at 5 MPH (4 knots; 2.1 m/s)
Visibility: 6 or more miles (10+ km)
Ceiling: ceiling and visibility are OK
Clouds: unknown
Weather: no significant weather observed at this time

METAR text: UUEE 190430Z 32002MPS CAVOK 21/12 Q1016 R24C/CLRD62 R24L/CLRD62 NOSIG
Conditions at: UUEE (MOSCOW/SHEREMET', RU) observed 0430 UTC 19 June 2019
Temperature: 21.0°C (70°F)
Dewpoint: 12.0°C (54°F) [RH = 56%]
Pressure (altimeter): 30.00 inches Hg (1016.0 mb)
Winds: from the NW (320 degrees) at 5 MPH (4 knots; 2.1 m/s)
Visibility: 6 or more miles (10+ km)
Ceiling: ceiling and visibility are OK
Clouds: unknown
Weather: no significant weather observed at this time

Forecast for: UUEE (MOSCOW/SHEREMET', RU)
Text: TAF UUEE 190159Z 1903/2003 32003MPS CAVOK TX28/1912Z TN15/2002Z
Forecast period: 0300 UTC 19 June 2019 to 0300 UTC 20 June 2019
Forecast type: FROM: standard forecast or significant change
Winds: from the NW (320 degrees) at 7 MPH (6 knots; 3.1 m/s)
Visibility: 6 or more miles 10+ km)
Ceiling: unknown
Clouds: missing
Weather: no significant weather forecast for this period